createdAt,value
2018-12-11T00:00:21.495Z,30.33
2018-12-11T00:02:29.521Z,30.98
2018-12-11T00:04:36.529Z,30.78
2018-12-11T00:06:43.958Z,30.36
2018-12-11T00:08:50.782Z,31.37
2018-12-11T00:10:57.519Z,30.83
2018-12-11T00:13:04.414Z,30.61
2018-12-11T00:15:12.640Z,30.85
2018-12-11T00:17:19.346Z,30.55
2018-12-11T00:19:26.297Z,30.33
2018-12-11T00:21:33.146Z,31.23
2018-12-11T00:23:39.818Z,29.93
2018-12-11T00:25:46.514Z,31.07
2018-12-11T00:27:53.487Z,31.06
2018-12-11T00:30:00.354Z,31.27
2018-12-11T00:32:07.522Z,31.07
2018-12-11T00:34:14.130Z,30.23
2018-12-11T00:36:21.008Z,30.63
2018-12-11T00:38:27.989Z,30.83
2018-12-11T00:40:35.042Z,30.47
2018-12-11T00:42:41.755Z,29.89
2018-12-11T00:44:48.727Z,30.90
2018-12-11T00:46:55.832Z,31.32
2018-12-11T00:49:02.983Z,30.47
2018-12-11T00:51:09.700Z,31.32
2018-12-11T00:53:16.389Z,31.33
2018-12-11T00:55:23.018Z,30.55
2018-12-11T00:57:30.013Z,30.71
2018-12-11T00:59:36.974Z,31.20
2018-12-11T01:01:43.966Z,30.53
2018-12-11T01:03:50.784Z,30.66
2018-12-11T01:05:57.881Z,30.56
2018-12-11T01:08:04.705Z,31.11
2018-12-11T01:10:12.005Z,30.42
2018-12-11T01:12:18.714Z,31.12
2018-12-11T01:14:25.513Z,30.63
2018-12-11T01:16:32.648Z,31.00
2018-12-11T01:18:39.806Z,31.15
2018-12-11T01:20:46.479Z,31.52
2018-12-11T01:22:53.232Z,30.92
2018-12-11T01:24:59.985Z,30.68
2018-12-11T01:27:06.953Z,30.65
2018-12-11T01:29:13.818Z,30.77
2018-12-11T01:31:20.641Z,30.73
2018-12-11T01:33:27.807Z,31.11
2018-12-11T01:35:34.493Z,30.12
2018-12-11T01:37:41.509Z,29.93
2018-12-11T01:39:48.349Z,30.19
2018-12-11T01:41:56.543Z,30.00
2018-12-11T01:44:03.330Z,30.08
2018-12-11T01:46:10.165Z,30.47
2018-12-11T01:48:16.985Z,30.39
2018-12-11T01:50:23.806Z,31.27
2018-12-11T01:52:30.636Z,30.38
2018-12-11T01:54:37.723Z,30.66
2018-12-11T01:56:44.578Z,30.56
2018-12-11T01:58:51.362Z,31.04
2018-12-11T02:00:58.141Z,30.94
2018-12-11T02:03:05.480Z,31.01
2018-12-11T02:05:12.208Z,30.71
2018-12-11T02:07:19.174Z,30.50
2018-12-11T02:09:25.916Z,30.80
2018-12-11T02:11:32.704Z,30.29
2018-12-11T02:13:39.648Z,31.18
2018-12-11T02:15:46.856Z,30.75
2018-12-11T02:17:53.514Z,31.83
2018-12-11T02:20:00.538Z,31.94
2018-12-11T02:22:07.572Z,31.81
2018-12-11T02:24:14.534Z,31.50
2018-12-11T02:26:21.334Z,31.19
2018-12-11T02:28:28.191Z,31.13
2018-12-11T02:30:35.036Z,31.13
2018-12-11T02:32:42.377Z,31.10
2018-12-11T02:34:49.302Z,31.64
2018-12-11T02:36:56.237Z,31.52
2018-12-11T02:39:03.776Z,30.95
2018-12-11T02:41:10.543Z,30.75
2018-12-11T02:43:17.310Z,30.69
2018-12-11T02:45:24.065Z,31.46
2018-12-11T02:47:31.266Z,31.11
2018-12-11T02:49:38.817Z,30.54
2018-12-11T02:51:45.626Z,31.08
2018-12-11T02:53:53.406Z,30.99
2018-12-11T02:56:00.302Z,33.31
2018-12-11T02:58:07.155Z,31.70
2018-12-11T03:00:14.110Z,31.64
2018-12-11T03:02:21.186Z,31.70
2018-12-11T03:04:28.266Z,31.89
2018-12-11T03:06:35.134Z,31.67
2018-12-11T03:08:41.945Z,31.72
2018-12-11T03:10:48.608Z,32.87
2018-12-11T03:12:55.724Z,32.02
2018-12-11T03:15:02.518Z,32.32
2018-12-11T03:17:09.552Z,32.27
2018-12-11T03:19:16.463Z,32.14
2018-12-11T03:21:23.556Z,32.08
2018-12-11T03:23:31.641Z,31.50
2018-12-11T03:25:39.337Z,31.40
2018-12-11T03:27:46.488Z,32.95
2018-12-11T03:29:53.445Z,31.62
2018-12-11T03:32:00.841Z,31.61
2018-12-11T03:34:07.829Z,32.28
2018-12-11T03:36:14.564Z,31.61
2018-12-11T03:38:21.178Z,31.57
2018-12-11T03:40:28.165Z,30.96
2018-12-11T03:42:35.010Z,30.80
2018-12-11T03:44:42.084Z,30.55
2018-12-11T03:46:48.855Z,30.89
2018-12-11T03:48:55.813Z,30.65
2018-12-11T03:51:03.198Z,32.19
2018-12-11T03:53:10.724Z,31.81
2018-12-11T03:55:17.699Z,32.11
2018-12-11T03:57:24.685Z,31.05
2018-12-11T03:59:31.644Z,31.04
2018-12-11T04:01:38.592Z,31.08
2018-12-11T04:03:45.456Z,31.11
2018-12-11T04:05:52.759Z,30.49
2018-12-11T04:07:59.404Z,29.94
2018-12-11T04:10:06.173Z,30.15
2018-12-11T04:12:13.638Z,29.21
2018-12-11T04:14:20.876Z,28.44
2018-12-11T04:16:28.300Z,29.45
2018-12-11T04:18:35.495Z,30.37
2018-12-11T04:20:42.389Z,30.13
2018-12-11T04:22:49.258Z,30.59
2018-12-11T04:24:56.145Z,30.97
2018-12-11T04:27:02.968Z,29.77
2018-12-11T04:29:09.930Z,30.63
2018-12-11T04:31:16.630Z,30.78
2018-12-11T04:33:23.459Z,31.15
2018-12-11T04:35:30.341Z,31.45
2018-12-11T04:37:36.989Z,32.15
2018-12-11T04:39:43.970Z,31.08
2018-12-11T04:41:51.091Z,30.78
2018-12-11T04:43:57.988Z,31.41
2018-12-11T04:46:04.827Z,31.08
2018-12-11T04:48:11.613Z,31.45
2018-12-11T04:50:18.418Z,31.20
2018-12-11T04:52:25.422Z,31.46
2018-12-11T04:54:32.285Z,30.72
2018-12-11T04:56:39.001Z,30.94
2018-12-11T04:58:45.884Z,28.88
2018-12-11T05:00:52.371Z,30.16
2018-12-11T05:02:59.234Z,29.13
2018-12-11T05:05:06.393Z,29.12
2018-12-11T05:07:13.058Z,29.23
2018-12-11T05:09:19.810Z,29.44
2018-12-11T05:11:26.843Z,30.27
2018-12-11T05:13:33.485Z,29.52
2018-12-11T05:15:40.253Z,30.49
2018-12-11T05:17:47.124Z,30.08
2018-12-11T05:19:53.801Z,30.35
2018-12-11T05:22:00.682Z,30.86
2018-12-11T05:24:07.312Z,31.03
2018-12-11T05:26:14.176Z,30.63
2018-12-11T05:28:20.823Z,30.73
2018-12-11T05:30:27.549Z,30.65
2018-12-11T05:32:34.286Z,31.58
2018-12-11T05:34:41.338Z,30.79
2018-12-11T05:36:47.969Z,30.92
2018-12-11T05:38:54.886Z,31.31
2018-12-11T05:41:01.680Z,30.83
2018-12-11T05:43:08.692Z,30.30
2018-12-11T05:45:16.166Z,31.19
2018-12-11T05:47:23.098Z,30.54
2018-12-11T05:49:29.889Z,29.53
2018-12-11T05:51:37.280Z,29.36
2018-12-11T05:53:45.006Z,29.81
2018-12-11T05:55:51.881Z,30.30
2018-12-11T05:57:58.686Z,29.55
2018-12-11T06:00:05.605Z,29.85
2018-12-11T06:02:12.371Z,30.61
2018-12-11T06:04:19.226Z,29.72
2018-12-11T06:06:25.777Z,30.30
2018-12-11T06:10:53.361Z,30.25
2018-12-11T06:13:00.169Z,30.84
2018-12-11T06:15:07.673Z,30.80
2018-12-11T06:17:14.994Z,30.55
2018-12-11T06:19:21.734Z,30.34
2018-12-11T06:21:28.806Z,30.58
2018-12-11T06:23:35.643Z,30.96
2018-12-11T06:25:42.841Z,31.14
2018-12-11T06:27:49.409Z,29.94
2018-12-11T06:29:56.071Z,30.13
2018-12-11T06:32:03.047Z,29.93
2018-12-11T06:34:09.570Z,29.86
2018-12-11T06:36:16.457Z,29.52
2018-12-11T06:38:23.265Z,29.40
2018-12-11T06:40:30.146Z,29.55
2018-12-11T06:42:36.739Z,29.63
2018-12-11T06:44:43.641Z,29.73
2018-12-11T06:46:50.337Z,29.88
2018-12-11T06:48:57.253Z,29.40
2018-12-11T06:51:04.087Z,29.39
2018-12-11T06:53:10.513Z,29.83
2018-12-11T06:55:17.056Z,29.88
2018-12-11T06:57:23.886Z,30.12
2018-12-11T06:59:31.622Z,30.57
2018-12-11T07:01:39.240Z,30.24
2018-12-11T07:03:46.152Z,30.50
2018-12-11T07:05:53.063Z,31.18
2018-12-11T07:07:59.971Z,31.07
2018-12-11T07:10:07.309Z,30.53
2018-12-11T07:12:14.252Z,31.05
2018-12-11T07:14:20.929Z,31.16
2018-12-11T07:16:27.903Z,30.57
2018-12-11T07:18:35.085Z,31.07
2018-12-11T07:20:42.126Z,31.18
2018-12-11T07:22:48.893Z,30.63
2018-12-11T07:24:57.633Z,31.03
2018-12-11T07:27:04.329Z,30.24
2018-12-11T07:29:11.324Z,30.70
2018-12-11T07:31:18.377Z,30.75
2018-12-11T07:33:25.245Z,30.09
2018-12-11T07:35:32.211Z,30.05
2018-12-11T07:37:39.217Z,30.43
2018-12-11T07:39:45.985Z,30.56
2018-12-11T07:41:53.089Z,30.73
2018-12-11T07:44:00.027Z,31.26
2018-12-11T07:46:07.317Z,30.91
2018-12-11T07:48:13.898Z,30.77
2018-12-11T07:50:20.398Z,31.61
2018-12-11T07:52:27.079Z,30.98
2018-12-11T07:54:34.221Z,30.76
2018-12-11T07:56:41.116Z,30.80
2018-12-11T07:58:47.917Z,31.15
2018-12-11T08:00:54.818Z,30.16
2018-12-11T08:03:01.750Z,30.26
2018-12-11T08:05:08.798Z,29.71
2018-12-11T08:07:15.573Z,30.17
2018-12-11T08:09:22.323Z,31.05
2018-12-11T08:11:29.341Z,31.37
2018-12-11T08:13:35.986Z,30.07
2018-12-11T08:15:43.345Z,29.61
2018-12-11T08:17:50.106Z,30.37
2018-12-11T08:19:57.080Z,31.45
2018-12-11T08:22:04.182Z,30.93
2018-12-11T08:24:10.898Z,30.64
2018-12-11T08:26:17.523Z,31.24
2018-12-11T08:28:24.426Z,30.72
2018-12-11T08:30:31.354Z,30.50
2018-12-11T08:32:38.424Z,30.69
2018-12-11T08:34:45.237Z,30.49
2018-12-11T08:36:51.855Z,31.09
2018-12-11T08:38:58.794Z,30.84
2018-12-11T08:41:05.470Z,31.42
2018-12-11T08:43:11.937Z,30.78
2018-12-11T08:45:18.706Z,31.12
2018-12-11T08:47:25.753Z,31.18
2018-12-11T08:49:32.870Z,30.94
2018-12-11T08:51:40.080Z,31.07
2018-12-11T08:53:47.055Z,30.41
2018-12-11T08:55:53.961Z,30.31
2018-12-11T08:58:00.678Z,31.21
2018-12-11T09:00:08.191Z,31.07
2018-12-11T09:02:15.104Z,30.20
2018-12-11T09:04:21.990Z,29.30
2018-12-11T09:06:28.802Z,29.30
2018-12-11T09:08:35.702Z,31.16
2018-12-11T09:10:42.639Z,29.78
2018-12-11T09:12:49.487Z,29.24
2018-12-11T09:14:56.113Z,30.01
2018-12-11T09:17:09.867Z,30.23
2018-12-11T09:19:12.191Z,30.12
2018-12-11T09:21:19.134Z,30.41
2018-12-11T09:23:25.864Z,30.18
2018-12-11T09:25:33.244Z,30.29
2018-12-11T09:27:39.889Z,31.19
2018-12-11T09:29:46.802Z,30.69
2018-12-11T09:31:53.765Z,31.33
2018-12-11T09:34:00.640Z,30.30
2018-12-11T09:36:07.368Z,31.37
2018-12-11T09:38:15.193Z,30.78
2018-12-11T09:40:24.661Z,30.11
2018-12-11T09:42:31.369Z,30.16
2018-12-11T09:44:38.155Z,30.99
2018-12-11T09:46:45.106Z,30.07
2018-12-11T09:48:52.037Z,29.89
2018-12-11T09:50:58.725Z,29.68
2018-12-11T09:53:05.507Z,29.95
2018-12-11T09:55:12.392Z,29.93
2018-12-11T09:57:19.210Z,29.36
2018-12-11T09:59:26.121Z,29.95
2018-12-11T10:01:32.986Z,29.88
2018-12-11T10:03:39.935Z,30.33
2018-12-11T10:05:47.150Z,30.13
2018-12-11T10:07:53.731Z,30.82
2018-12-11T10:10:00.906Z,30.40
2018-12-11T10:12:07.889Z,30.37
2018-12-11T10:14:14.959Z,30.58
2018-12-11T10:16:22.204Z,30.43
2018-12-11T10:18:29.227Z,30.92
2018-12-11T10:20:36.730Z,30.74
2018-12-11T10:22:43.962Z,30.64
2018-12-11T10:24:50.878Z,30.96
2018-12-11T10:26:57.635Z,30.91
2018-12-11T10:29:04.545Z,31.03
2018-12-11T10:31:11.629Z,31.12
2018-12-11T10:33:18.678Z,30.41
2018-12-11T10:35:25.496Z,30.25
2018-12-11T10:37:32.234Z,30.98
2018-12-11T10:39:39.211Z,30.45
2018-12-11T10:41:45.946Z,29.25
2018-12-11T10:43:52.721Z,30.57
2018-12-11T10:45:59.876Z,30.00
2018-12-11T10:48:07.502Z,29.26
2018-12-11T10:50:14.915Z,29.90
2018-12-11T10:52:22.839Z,29.19
2018-12-11T10:54:29.698Z,29.11
2018-12-11T10:56:36.347Z,29.35
2018-12-11T10:58:43.142Z,29.89
2018-12-11T11:00:54.497Z,29.35
2018-12-11T11:03:05.631Z,29.68
2018-12-11T11:05:12.410Z,29.11
2018-12-11T11:07:19.327Z,30.12
2018-12-11T11:09:26.123Z,30.22
2018-12-11T11:11:33.007Z,30.06
2018-12-11T11:13:40.107Z,30.63
2018-12-11T11:15:46.874Z,30.75
2018-12-11T11:17:53.863Z,30.38
2018-12-11T11:20:00.575Z,31.05
2018-12-11T11:22:07.221Z,30.61
2018-12-11T11:24:14.160Z,30.52
2018-12-11T11:26:21.030Z,30.89
2018-12-11T11:28:27.896Z,31.07
2018-12-11T11:30:34.729Z,31.08
2018-12-11T11:32:41.517Z,31.16
2018-12-11T11:34:49.047Z,31.10
2018-12-11T11:36:55.714Z,31.18
2018-12-11T11:39:02.530Z,31.37
2018-12-11T11:41:09.467Z,31.64
2018-12-11T11:43:16.339Z,30.75
2018-12-11T11:45:23.446Z,31.23
2018-12-11T11:47:30.113Z,31.62
2018-12-11T11:49:36.778Z,31.50
2018-12-11T11:51:43.870Z,32.11
2018-12-11T11:53:50.701Z,30.64
2018-12-11T11:55:57.278Z,30.44
2018-12-11T11:58:04.291Z,29.71
2018-12-11T12:00:14.348Z,30.03
2018-12-11T12:02:21.375Z,29.87
2018-12-11T12:04:28.060Z,30.07
2018-12-11T12:06:34.874Z,30.11
2018-12-11T12:08:41.895Z,29.37
2018-12-11T12:10:49.602Z,28.58
2018-12-11T12:12:56.322Z,28.76
2018-12-11T12:15:03.478Z,27.98
2018-12-11T12:17:10.659Z,29.67
2018-12-11T12:19:17.667Z,30.44
2018-12-11T12:21:24.413Z,30.91
2018-12-11T12:23:31.347Z,29.44
2018-12-11T12:25:38.958Z,29.82
2018-12-11T12:27:45.790Z,30.02
2018-12-11T12:29:52.622Z,29.85
2018-12-11T12:31:59.579Z,30.03
2018-12-11T12:34:06.556Z,30.18
2018-12-11T12:36:13.419Z,30.02
2018-12-11T12:38:20.110Z,30.77
2018-12-11T12:40:27.901Z,30.10
2018-12-11T12:42:34.961Z,30.94
2018-12-11T12:44:41.929Z,29.29
2018-12-11T12:46:49.949Z,29.10
2018-12-11T12:48:56.818Z,29.27
2018-12-11T12:51:03.697Z,29.67
2018-12-11T12:53:10.430Z,29.71
2018-12-11T12:55:17.685Z,29.18
2018-12-11T12:57:24.390Z,28.41
2018-12-11T12:59:31.067Z,29.22
2018-12-11T13:01:37.842Z,27.89
2018-12-11T13:03:44.880Z,28.35
2018-12-11T13:05:51.720Z,28.55
2018-12-11T13:07:58.506Z,27.82
2018-12-11T13:10:05.442Z,27.89
2018-12-11T13:12:12.126Z,27.39
2018-12-11T13:14:19.070Z,28.24
2018-12-11T13:16:25.993Z,28.43
2018-12-11T13:18:33.036Z,28.54
2018-12-11T13:20:40.292Z,28.98
2018-12-11T13:22:47.146Z,28.08
2018-12-11T13:24:53.894Z,28.53
2018-12-11T13:27:00.725Z,28.20
2018-12-11T13:29:07.528Z,29.37
2018-12-11T13:31:14.561Z,27.72
2018-12-11T13:33:21.955Z,29.01
2018-12-11T13:35:28.902Z,28.26
2018-12-11T13:37:35.912Z,27.88
2018-12-11T13:39:42.818Z,27.93
2018-12-11T13:41:49.451Z,29.08
2018-12-11T13:43:56.765Z,27.74
2018-12-11T13:46:03.574Z,28.07
2018-12-11T13:48:10.833Z,29.21
2018-12-11T13:50:17.427Z,29.40
2018-12-11T13:52:24.540Z,29.33
2018-12-11T13:54:32.128Z,29.96
2018-12-11T13:56:39.141Z,29.76
2018-12-11T13:58:46.286Z,29.57
2018-12-11T14:00:52.922Z,30.05
2018-12-11T14:03:00.006Z,30.09
2018-12-11T14:05:07.340Z,30.14
2018-12-11T14:07:14.418Z,29.58
2018-12-11T14:09:26.398Z,29.70
2018-12-11T14:11:34.211Z,29.91
2018-12-11T14:13:40.963Z,29.13
2018-12-11T14:15:48.071Z,29.84
2018-12-11T14:17:54.842Z,29.20
2018-12-11T14:20:01.628Z,29.36
2018-12-11T14:22:08.683Z,29.58
2018-12-11T14:24:16.111Z,29.68
2018-12-11T14:26:23.002Z,30.14
2018-12-11T14:28:30.925Z,30.65
2018-12-11T14:30:38.390Z,30.06
2018-12-11T14:32:45.530Z,30.26
2018-12-11T14:34:52.766Z,30.55
2018-12-11T14:36:59.823Z,32.16
2018-12-11T14:39:07.110Z,30.71
2018-12-11T14:41:14.092Z,31.28
2018-12-11T14:43:20.994Z,32.24
2018-12-11T14:45:27.742Z,31.36
2018-12-11T14:47:35.125Z,31.53
2018-12-11T14:49:42.509Z,32.13
2018-12-11T14:51:50.340Z,30.91
2018-12-11T14:53:57.926Z,31.02
2018-12-11T14:56:05.522Z,30.53
2018-12-11T14:58:12.528Z,31.05
2018-12-11T15:00:19.303Z,30.48
2018-12-11T15:02:26.217Z,29.63
2018-12-11T15:04:33.160Z,29.48
2018-12-11T15:06:40.181Z,28.66
2018-12-11T15:08:46.854Z,29.03
2018-12-11T15:10:53.542Z,29.78
2018-12-11T15:13:00.393Z,28.96
2018-12-11T15:15:08.147Z,29.74
2018-12-11T15:17:16.010Z,29.81
2018-12-11T15:19:22.809Z,29.87
2018-12-11T15:21:30.117Z,29.48
2018-12-11T15:23:37.542Z,29.05
2018-12-11T15:25:44.352Z,29.14
2018-12-11T15:27:51.854Z,30.03
2018-12-11T15:29:59.330Z,30.07
2018-12-11T15:32:06.069Z,29.12
2018-12-11T15:34:12.983Z,29.93
2018-12-11T15:36:20.214Z,30.13
2018-12-11T15:38:27.537Z,29.55
2018-12-11T15:40:34.785Z,30.05
2018-12-11T15:42:41.997Z,31.18
2018-12-11T15:44:49.012Z,29.40
2018-12-11T15:46:56.859Z,29.12
2018-12-11T15:49:03.898Z,29.54
2018-12-11T15:51:10.666Z,28.95
2018-12-11T15:53:17.963Z,28.46
2018-12-11T15:55:25.314Z,28.35
2018-12-11T15:57:32.105Z,29.16
2018-12-11T15:59:39.539Z,29.47
2018-12-11T16:01:46.843Z,28.88
2018-12-11T16:03:54.335Z,30.06
2018-12-11T16:06:01.273Z,28.99
2018-12-11T16:08:07.972Z,28.89
2018-12-11T16:10:14.945Z,29.16
2018-12-11T16:12:21.876Z,29.59
2018-12-11T16:14:29.550Z,29.65
2018-12-11T16:16:36.789Z,29.22
2018-12-11T16:18:43.809Z,30.27
2018-12-11T16:20:50.794Z,29.68
2018-12-11T16:22:58.703Z,29.76
2018-12-11T16:25:05.581Z,30.05
2018-12-11T16:27:13.206Z,30.38
2018-12-11T16:29:20.286Z,29.67
2018-12-11T16:31:27.000Z,30.04
2018-12-11T16:33:33.777Z,30.19
2018-12-11T16:35:40.602Z,29.47
2018-12-11T16:37:47.596Z,29.02
2018-12-11T16:39:54.802Z,30.08
2018-12-11T16:42:02.221Z,27.99
2018-12-11T16:44:09.591Z,28.08
2018-12-11T16:46:16.510Z,27.58
2018-12-11T16:48:23.931Z,27.32
2018-12-11T16:50:31.754Z,27.55
2018-12-11T16:52:38.626Z,26.89
2018-12-11T16:54:45.876Z,28.42
2018-12-11T16:56:53.621Z,27.38
2018-12-11T16:59:00.922Z,28.71
2018-12-11T17:01:08.181Z,28.53
2018-12-11T17:03:15.290Z,28.35
2018-12-11T17:05:22.590Z,28.74
2018-12-11T17:07:29.557Z,28.85
2018-12-11T17:09:39.678Z,29.00
2018-12-11T17:11:47.142Z,28.75
2018-12-11T17:13:54.052Z,29.41
2018-12-11T17:16:00.925Z,29.32
2018-12-11T17:18:07.946Z,29.04
2018-12-11T17:20:15.791Z,28.88
2018-12-11T17:22:22.522Z,29.36
2018-12-11T17:24:29.194Z,29.04
2018-12-11T17:26:36.382Z,29.59
2018-12-11T17:28:43.593Z,29.69
2018-12-11T17:30:50.975Z,29.19
2018-12-11T17:32:58.186Z,29.32
2018-12-11T17:35:05.371Z,30.28
2018-12-11T17:37:12.598Z,29.52
2018-12-11T17:39:19.370Z,29.79
2018-12-11T17:41:26.747Z,30.52
2018-12-11T17:43:34.160Z,29.72
2018-12-11T17:45:40.886Z,30.02
2018-12-11T17:47:48.192Z,29.16
2018-12-11T17:49:55.335Z,30.14
2018-12-11T17:52:02.593Z,29.76
2018-12-11T17:54:10.274Z,29.16
2018-12-11T17:56:17.416Z,29.51
2018-12-11T17:58:24.554Z,30.04
2018-12-11T18:00:31.377Z,29.68
2018-12-11T18:02:40.030Z,30.26
2018-12-11T18:04:47.205Z,29.91
2018-12-11T18:06:54.598Z,29.65
2018-12-11T18:09:01.837Z,30.20
2018-12-11T18:11:09.134Z,30.00
2018-12-11T18:13:16.318Z,29.65
2018-12-11T18:15:23.765Z,29.74
2018-12-11T18:17:30.942Z,29.53
2018-12-11T18:19:37.825Z,29.57
2018-12-11T18:21:45.502Z,29.62
2018-12-11T18:23:52.317Z,28.30
2018-12-11T18:25:59.322Z,28.41
2018-12-11T18:28:06.576Z,27.71
2018-12-11T18:30:13.994Z,27.20
2018-12-11T18:32:25.072Z,27.33
2018-12-11T18:34:30.140Z,26.89
2018-12-11T18:36:37.141Z,26.82
2018-12-11T18:38:44.462Z,26.25
2018-12-11T18:40:51.481Z,27.52
2018-12-11T18:42:58.386Z,28.20
2018-12-11T18:45:05.975Z,27.56
2018-12-11T18:47:12.727Z,27.76
2018-12-11T18:49:19.704Z,27.98
2018-12-11T18:51:27.256Z,28.00
2018-12-11T18:53:34.022Z,28.59
2018-12-11T18:55:41.343Z,28.78
2018-12-11T18:57:48.189Z,29.20
2018-12-11T18:59:55.197Z,29.13
2018-12-11T19:02:02.172Z,29.46
2018-12-11T19:04:08.943Z,30.33
2018-12-11T19:06:15.838Z,29.48
2018-12-11T19:08:23.809Z,30.05
2018-12-11T19:10:30.992Z,29.84
2018-12-11T19:12:38.362Z,30.31
2018-12-11T19:14:45.496Z,29.99
2018-12-11T19:16:52.783Z,30.18
2018-12-11T19:18:59.975Z,30.66
2018-12-11T19:21:06.946Z,29.83
2018-12-11T19:23:54.036Z,30.33
2018-12-11T19:26:01.322Z,30.86
2018-12-11T19:28:08.659Z,30.30
2018-12-11T19:30:15.853Z,30.29
2018-12-11T19:32:23.400Z,31.61
2018-12-11T19:34:30.404Z,30.65
2018-12-11T19:36:37.199Z,31.25
2018-12-11T19:38:44.271Z,29.63
2018-12-11T19:40:51.070Z,30.00
2018-12-11T19:42:58.103Z,31.22
2018-12-11T19:45:04.902Z,30.47
2018-12-11T19:47:11.923Z,30.46
2018-12-11T19:49:18.781Z,30.10
2018-12-11T19:51:25.911Z,31.13
2018-12-11T19:53:32.872Z,31.20
2018-12-11T19:55:39.685Z,32.54
2018-12-11T19:57:46.369Z,29.94
2018-12-11T19:59:53.385Z,29.88
2018-12-11T20:02:00.871Z,29.71
2018-12-11T20:04:07.694Z,29.65
2018-12-11T20:06:15.505Z,29.01
2018-12-11T20:08:22.567Z,30.08
2018-12-11T20:10:30.357Z,29.84
2018-12-11T20:12:37.431Z,30.22
2018-12-11T20:14:44.378Z,29.67
2018-12-11T20:16:51.040Z,30.36
2018-12-11T20:18:57.641Z,30.15
2018-12-11T20:21:04.617Z,30.63
2018-12-11T20:23:11.330Z,31.05
2018-12-11T20:25:18.495Z,30.58
2018-12-11T20:27:25.398Z,30.30
2018-12-11T20:29:32.304Z,30.91
2018-12-11T20:31:39.139Z,31.45
2018-12-11T20:33:45.965Z,31.17
2018-12-11T20:35:53.087Z,31.87
2018-12-11T20:37:59.830Z,31.00
2018-12-11T20:40:06.799Z,31.72
2018-12-11T20:42:13.513Z,31.32
2018-12-11T20:44:20.551Z,31.73
2018-12-11T20:46:27.310Z,31.34
2018-12-11T20:48:34.320Z,31.88
2018-12-11T20:50:41.133Z,31.21
2018-12-11T20:52:48.386Z,31.32
2018-12-11T20:54:54.974Z,32.41
2018-12-11T20:57:01.545Z,32.48
2018-12-11T20:59:09.158Z,31.71
2018-12-11T21:01:16.317Z,32.97
2018-12-11T21:03:23.112Z,33.47
2018-12-11T21:05:29.788Z,31.24
2018-12-11T21:07:36.798Z,31.08
2018-12-11T21:09:43.734Z,30.49
2018-12-11T21:11:50.812Z,30.21
2018-12-11T21:13:58.005Z,30.48
2018-12-11T21:16:10.847Z,30.75
2018-12-11T21:18:14.055Z,30.82
2018-12-11T21:20:21.066Z,30.27
2018-12-11T21:22:28.164Z,29.81
2018-12-11T21:24:35.591Z,30.14
2018-12-11T21:26:43.147Z,30.52
2018-12-11T21:28:50.173Z,30.62
2018-12-11T21:30:57.306Z,30.60
2018-12-11T21:33:04.171Z,30.53
2018-12-11T21:35:11.976Z,30.46
2018-12-11T21:37:19.040Z,29.79
2018-12-11T21:39:25.887Z,30.41
2018-12-11T21:41:32.861Z,30.09
2018-12-11T21:43:39.779Z,30.08
2018-12-11T21:45:46.819Z,29.97
2018-12-11T21:47:53.824Z,29.70
2018-12-11T21:50:01.053Z,29.98
2018-12-11T21:52:08.180Z,30.04
2018-12-11T21:55:28.793Z,30.88
2018-12-11T21:57:35.711Z,30.07
2018-12-11T21:59:42.871Z,29.73
2018-12-11T22:01:49.749Z,29.83
2018-12-11T22:04:00.488Z,29.24
2018-12-11T22:06:07.803Z,28.52
2018-12-11T22:08:14.562Z,28.80
2018-12-11T22:10:21.501Z,27.72
2018-12-11T22:12:29.252Z,29.52
2018-12-11T22:14:36.312Z,27.37
2018-12-11T22:16:43.166Z,28.14
2018-12-11T22:18:50.226Z,27.84
2018-12-11T22:20:57.238Z,27.33
2018-12-11T22:23:04.800Z,27.64
2018-12-11T22:25:11.830Z,27.41
2018-12-11T22:27:18.809Z,28.06
2018-12-11T22:29:25.987Z,28.04
2018-12-11T22:31:34.062Z,28.38
2018-12-11T22:33:41.108Z,29.23
2018-12-11T22:35:48.105Z,29.03
2018-12-11T22:37:55.233Z,28.74
2018-12-11T22:40:02.229Z,28.92
2018-12-11T22:42:10.109Z,29.66
2018-12-11T22:44:18.193Z,29.37
2018-12-11T22:46:25.160Z,29.51
2018-12-11T22:48:33.506Z,29.90
2018-12-11T22:50:40.826Z,29.88
2018-12-11T22:52:48.054Z,29.40
2018-12-11T22:54:55.165Z,29.57
2018-12-11T22:57:01.993Z,30.11
2018-12-11T22:59:08.914Z,29.87
2018-12-11T23:01:15.693Z,30.35
2018-12-11T23:03:22.509Z,30.46
2018-12-11T23:05:29.541Z,30.22
2018-12-11T23:07:36.350Z,30.42
2018-12-11T23:09:47.133Z,30.12
2018-12-11T23:11:54.417Z,30.59
2018-12-11T23:14:01.294Z,30.02
2018-12-11T23:16:08.281Z,30.22
2018-12-11T23:18:15.102Z,30.88
2018-12-11T23:20:22.237Z,30.51
2018-12-11T23:22:29.588Z,30.77
2018-12-11T23:24:37.335Z,30.21
2018-12-11T23:26:44.637Z,30.31
2018-12-11T23:28:51.646Z,29.52
2018-12-11T23:30:58.286Z,30.04
2018-12-11T23:33:05.356Z,28.62
2018-12-11T23:35:12.206Z,28.77
2018-12-11T23:37:19.034Z,30.02
2018-12-11T23:39:25.912Z,29.73
2018-12-11T23:41:33.190Z,30.44
2018-12-11T23:43:40.450Z,30.29
2018-12-11T23:45:47.165Z,29.79
2018-12-11T23:47:54.064Z,30.76
2018-12-11T23:50:00.928Z,30.47
2018-12-11T23:52:07.975Z,31.06
2018-12-11T23:54:14.262Z,30.61
2018-12-11T23:56:20.996Z,30.22
2018-12-11T23:58:27.879Z,30.26
